Login
Access
Login with your mtb-forum.it nickname and password.


You do not have an account? Sign up here for free

caremp

Last training unit 16/08/2019
1
Followers
87 464 Km
itineraries
835 046 m
of total vertical gain
3436
hours of riding
25.85 Km/h
average speed
137
average HR


16/08/2019 Show to everybody Giro mattutino 78.74 Km 332 m 03:09:02 24.99 Km\h Venge
15/08/2019 Show to everybody Giro mattutino 75.56 Km 362 m 03:04:39 24.55 Km\h Venge
14/08/2019 Show to everybody Giro mattutino 101.47 Km 892 m 04:18:15 23.57 Km\h Venge
13/08/2019 Show to everybody Giro mattutino 148.18 Km 1776 m 07:08:32 20.75 Km\h Venge
12/08/2019 Show to everybody Giro mattutino 87.67 Km 626 m 03:34:58 24.47 Km\h Venge
10/08/2019 Show to everybody Giro mattutino 100.02 Km 637 m 04:01:59 24.8 Km\h Venge
04/08/2019 Show to everybody Giornata speciale per me e mia Figlia tanti auguri per i Tuoi 18Anni 132.13 Km 1660 m 05:52:29 22.49 Km\h Venge
31/07/2019 Show to everybody Giro mattutino 77.65 Km 565 m 03:11:23 24.34 Km\h Venge
25/07/2019 Show to everybody Giro pomeridiano 96.55 Km 1030 m 04:10:20 23.14 Km\h Venge
23/07/2019 Show to everybody Giro pomeridiano 87.43 Km 570 m 03:21:14 26.07 Km\h Venge
22/07/2019 Show to everybody Giro pomeridiano 68.79 Km 72 m 02:33:53 26.82 Km\h Venge
19/07/2019 Show to everybody Giro mattutino 72.16 Km 567 m 03:07:30 23.09 Km\h Venge
18/07/2019 Show to everybody Giro mattutino 75.95 Km 600 m 03:07:11 24.35 Km\h Venge
16/07/2019 Show to everybody Il mio onomastico✅🍼$ / N(). b;r# 18.98 Km 23 m 00:43:44 26.04 Km\h Venge
14/07/2019 Show to everybody Giro mattutino 81.58 Km 450 m 03:09:25 25.84 Km\h Venge
10/07/2019 Show to everybody Giro pomeridiano 79.39 Km 577 m 02:50:30 27.94 Km\h Venge
09/07/2019 Show to everybody Giro pomeridiano 60.48 Km 362 m 02:16:16 26.63 Km\h Venge
08/07/2019 Show to everybody Giro pomeridiano 77.92 Km 649 m 03:15:49 23.87 Km\h Venge
05/07/2019 Show to everybody Giro mattutino 64.82 Km 397 m 02:29:01 26.1 Km\h Venge
04/07/2019 Show to everybody Giro mattutino 83.39 Km 704 m 03:25:48 24.31 Km\h Venge
03/07/2019 Show to everybody Giro mattutino 83.67 Km 683 m 03:30:08 23.89 Km\h Venge
27/06/2019 Show to everybody Giro pomeridiano 62.35 Km 344 m 02:13:59 27.92 Km\h Venge
26/06/2019 Show to everybody Giro pomeridiano 87.94 Km 731 m 03:37:00 24.32 Km\h Venge
24/06/2019 Show to everybody Giro pomeridiano 77.78 Km 587 m 03:15:28 23.87 Km\h Venge
23/06/2019 Show to everybody Giro mattutino 81.52 Km 416 m 03:14:32 25.14 Km\h Venge
18/06/2019 Show to everybody Giro mattutino 92.41 Km 745 m 03:53:17 23.77 Km\h Venge
14/06/2019 Show to everybody Giro pomeridiano 94.28 Km 608 m 03:43:19 25.33 Km\h Venge
11/06/2019 Show to everybody Giro pomeridiano 93.03 Km 527 m 04:04:08 22.86 Km\h Venge
10/06/2019 Show to everybody Giro pomeridiano 107.24 Km 734 m 04:21:21 24.62 Km\h Venge
02/06/2019 Show to everybody Giro mattutino 74.13 Km 136 m 02:28:12 30.01 Km\h Venge
01/06/2019 Show to everybody Giro pomeridiano 92.64 Km 296 m 03:09:09 29.39 Km\h Venge
01/06/2019 Show to everybody Giro dell`ora di pranzo 26.73 Km 677 m 01:29:57 17.83 Km\h Venge
01/06/2019 Show to everybody Giro mattutino 61.98 Km 400 m 02:27:18 25.24 Km\h Venge
01/06/2019 Show to everybody Giro pomeridiano 92.64 Km 296 m 03:09:09 29.39 Km\h Venge
30/05/2019 Show to everybody Giro pomeridiano 48.94 Km 149 m 01:50:07 26.67 Km\h Venge
09/05/2019 Show to everybody Giro pomeridiano 98.8 Km 1106 m 04:06:52 24.01 Km\h Venge
07/05/2019 Show to everybody Giro dell`ora di pranzo 90.77 Km 922 m 03:57:37 22.92 Km\h Venge
06/05/2019 Show to everybody Giro mattutino 99.95 Km 1133 m 04:19:47 23.08 Km\h Venge
04/05/2019 Show to everybody Giro mattutino 97.11 Km 552 m 03:43:42 26.05 Km\h Venge
02/05/2019 Show to everybody Giro serale 44.73 Km 172 m 01:39:12 27.05 Km\h Venge
30/04/2019 Show to everybody Giro dell`ora di pranzo 67.65 Km 496 m 02:48:20 24.11 Km\h Venge
27/04/2019 Show to everybody Giro dell`ora di pranzo 120 Km 1356 m 05:29:17 21.87 Km\h Venge
22/04/2019 Show to everybody Giro mattutino 150.76 Km 839 m 05:58:38 25.22 Km\h Venge
20/04/2019 Show to everybody Giro mattutino 80.82 Km 367 m 03:04:15 26.32 Km\h Venge
19/04/2019 Show to everybody Giro pomeridiano 94.41 Km 777 m 03:59:23 23.66 Km\h Venge
18/04/2019 Show to everybody Giro pomeridiano 100.52 Km 1073 m 04:34:42 21.96 Km\h Venge
16/04/2019 Show to everybody Giro pomeridiano 91.14 Km 557 m 03:48:50 23.9 Km\h Venge
15/04/2019 Show to everybody Giro pomeridiano 112.12 Km 963 m 04:42:31 23.81 Km\h Venge
07/04/2019 Show to everybody Giro mattutino 91.01 Km 862 m 03:43:07 24.48 Km\h Venge
01/04/2019 Show to everybody Giro serale 14.79 Km 0 m 00:34:17 25.88 Km\h Venge
01/04/2019 Show to everybody Giro pomeridiano 77.74 Km 619 m 03:10:10 24.53 Km\h Venge
31/03/2019 Show to everybody Giro mattutino 77.47 Km 394 m 03:58:04 26.1 Km\h Venge
28/03/2019 Show to everybody Giro mattutino 79.87 Km 682 m 03:19:40 24 Km\h Venge
24/03/2019 Show to everybody Giro mattutino 97.44 Km 931 m 04:00:49 24.28 Km\h Venge
21/03/2019 Show to everybody Su per il Montello ,si scopre sempre qualcosa Di nuovo 89.2 Km 929 m 04:07:37 21.62 Km\h Venge
20/03/2019 Show to everybody Giro dell`ora di pranzo 118.68 Km 856 m 04:54:31 24.18 Km\h Venge
16/03/2019 Show to everybody Giro mattutino 114.97 Km 1002 m 05:02:24 22.81 Km\h Venge
15/03/2019 Show to everybody 69.99 Km 609 m 03:12:42 21.79 Km\h Venge
13/03/2019 Show to everybody Attività 64.28 Km 516 m 03:34:40 24.94 Km\h Venge
10/03/2019 Show to everybody Giro mattutino 95.38 Km 688 m 03:54:09 24.44 Km\h Venge
09/03/2019 Show to everybody Giro mattutino 103.35 Km 818 m 04:12:02 24.6 Km\h Venge
06/03/2019 Show to everybody Giro mattutino 0.35 Km 5 m 00:01:31 14.03 Km\h Venge
06/03/2019 Show to everybody Giro mattutino 78.35 Km 569 m 03:10:09 24.72 Km\h Venge
03/03/2019 Show to everybody Giro mattutino 109.79 Km 787 m 04:23:00 25.05 Km\h Venge
28/02/2019 Show to everybody Giro dell`ora di pranzo 77.11 Km 492 m 03:20:15 23.1 Km\h Venge
27/02/2019 Show to everybody Giro mattutino 90.5 Km 622 m 03:45:46 24.05 Km\h Venge
24/02/2019 Show to everybody Giro mattutino 85.09 Km 384 m 03:35:35 23.68 Km\h Venge
23/02/2019 Show to everybody Mannaggia,he anche questo fa parte del gioco li dove andavo a tutta in salita ho messo il piede a Terra,sono amareggiato`XXHH[ۛZH[[ܘ[ZHXZH\H[X|`l<&I I I 86.6 Km 432 m 03:27:58 24.99 Km\h Venge
21/02/2019 Show to everybody Giro pomeridiano 1.8 Km 7 m 00:05:58 18.06 Km\h Venge
21/02/2019 Show to everybody Giro pomeridiano 57.5 Km 140 m 02:24:16 23.91 Km\h Venge
20/02/2019 Show to everybody Con calma si fa Tutto! 47.14 Km 192 m 02:02:08 23.16 Km\h Venge
17/02/2019 Show to everybody Giro mattutino 74.92 Km 178 m 02:50:12 26.41 Km\h Venge
16/02/2019 Show to everybody Giro mattutino 69.83 Km 154 m 03:17:08 21.25 Km\h Venge
19/11/2018 Show to everybody Giro mattutino 62.7 Km 440 m 02:28:49 25.28 Km\h Venge
18/11/2018 Show to everybody Giro mattutino 75.57 Km 237 m 02:42:53 27.84 Km\h Venge
17/11/2018 Show to everybody Giro mattutino 87.49 Km 546 m 03:21:18 26.08 Km\h Venge
14/11/2018 Show to everybody Giro pomeridiano 47.43 Km 102 m 01:46:54 26.62 Km\h Venge
12/11/2018 Show to everybody Giro pomeridiano 48.05 Km 202 m 01:43:23 27.89 Km\h Venge
08/11/2018 Show to everybody Giro mattutino 92.45 Km 640 m 03:27:04 26.79 Km\h Venge
04/11/2018 Show to everybody Giro mattutino 84.54 Km 227 m 02:51:18 29.61 Km\h Venge
25/10/2018 Show to everybody Giro pomeridiano 77.08 Km 624 m 03:02:49 25.3 Km\h Venge
23/10/2018 Show to everybody Giro pomeridiano 66.49 Km 363 m 02:27:23 27.07 Km\h Venge
20/10/2018 Show to everybody Giro mattutino 94.11 Km 777 m 03:44:11 25.19 Km\h Venge
18/10/2018 Show to everybody Giro mattutino 84.01 Km 637 m 03:00:15 27.97 Km\h Venge
16/10/2018 Show to everybody Giro mattutino 86.68 Km 695 m 03:14:09 26.79 Km\h Venge
14/10/2018 Show to everybody Giro mattutino 91.59 Km 574 m 03:25:47 26.71 Km\h Venge
14/10/2018 Show to everybody Giro mattutino 0.17 Km 0 m 00:00:27 22.13 Km\h Venge
13/10/2018 Show to everybody Giro mattutino 99.15 Km 1054 m 04:00:57 24.69 Km\h Venge
11/10/2018 Show to everybody Giro pomeridiano 89.42 Km 482 m 03:11:42 27.99 Km\h Venge
09/10/2018 Show to everybody Giro pomeridiano 89.98 Km 521 m 03:11:21 28.21 Km\h Venge
05/10/2018 Show to everybody Giro mattutino 78.85 Km 604 m 03:16:50 24.04 Km\h Venge
04/10/2018 Show to everybody Giro mattutino 79.61 Km 501 m 02:55:26 27.23 Km\h Venge
03/10/2018 Show to everybody Giro mattutino 94.35 Km 817 m 03:46:49 24.96 Km\h Venge
30/09/2018 Show to everybody Giro mattutino 95.42 Km 517 m 03:36:58 26.39 Km\h Venge
29/09/2018 Show to everybody Giro mattutino 88.34 Km 915 m 03:59:54 22.09 Km\h Venge
26/09/2018 Show to everybody Giro pomeridiano 91.11 Km 781 m 03:53:21 23.43 Km\h Venge
25/09/2018 Show to everybody Giro pomeridiano 85.37 Km 669 m 03:42:00 23.07 Km\h Venge
23/09/2018 Show to everybody Giro mattutino 85.03 Km 480 m 03:16:06 26.02 Km\h Venge
22/09/2018 Show to everybody Giro mattutino 104.95 Km 700 m 03:56:52 26.58 Km\h Venge
20/09/2018 Show to everybody Giro mattutino 88.98 Km 720 m 03:33:07 25.05 Km\h Venge
18/09/2018 Show to everybody Giro mattutino 83.97 Km 462 m 03:14:33 25.9 Km\h Venge
16/09/2018 Show to everybody Giro mattutino 92.24 Km 496 m 03:37:47 25.41 Km\h Venge
15/09/2018 Show to everybody Giro mattutino 89.34 Km 478 m 03:26:42 25.93 Km\h Venge
14/09/2018 Show to everybody Giro pomeridiano 41.14 Km 52 m 01:47:21 22.99 Km\h Venge
12/09/2018 Show to everybody Giro pomeridiano 77.1 Km 482 m 03:00:46 25.59 Km\h Venge
10/09/2018 Show to everybody Giro pomeridiano 83.01 Km 505 m 03:10:04 26.21 Km\h Venge
09/09/2018 Show to everybody Giro mattutino 98.74 Km 577 m 04:10:55 23.61 Km\h Venge
08/09/2018 Show to everybody Giro mattutino 91.75 Km 403 m 03:36:13 25.46 Km\h Venge
06/09/2018 Show to everybody Giro mattutino 80.05 Km 482 m 03:14:58 24.63 Km\h Venge
04/09/2018 Show to everybody Dopo due mesi si ritorna ! 79.45 Km 406 m 03:19:34 23.89 Km\h Venge
30/08/2018 Show to everybody Giro pomeridiano 86.05 Km 448 m 03:21:06 25.67 Km\h Venge
27/08/2018 Show to everybody Giro pomeridiano 71.81 Km 199 m 02:52:16 25.01 Km\h Venge
22/08/2018 Show to everybody Giro mattutino 56.79 Km 187 m 02:21:41 24.05 Km\h Venge
02/08/2018 Show to everybody E’ Piove!!! 36.34 Km 152 m 01:25:12 25.59 Km\h Venge
02/08/2018 Show to everybody Giro serale 14.84 Km 6 m 00:33:20 26.71 Km\h Venge
01/08/2018 Show to everybody Giro pomeridiano 100.5 Km 996 m 04:15:16 23.62 Km\h Venge
30/07/2018 Show to everybody Giro pomeridiano 94.22 Km 451 m 03:22:16 27.95 Km\h Venge
29/07/2018 Show to everybody Giro delle Fontane(`(`( 142.05 Km 1102 m 05:34:32 25.48 Km\h Venge
28/07/2018 Show to everybody Giro mattutino 121.82 Km 1291 m 05:00:17 24.34 Km\h Venge
26/07/2018 Show to everybody Giro mattutino 70.03 Km 342 m 02:48:31 24.93 Km\h Venge
25/07/2018 Show to everybody ...il Pedale dove’? 53.54 Km 55 m 02:15:12 23.76 Km\h Venge
19/07/2018 Show to everybody Giro pomeridiano 56.14 Km 250 m 02:03:12 27.34 Km\h Venge
18/07/2018 Show to everybody Iniziamo con calma!! 100.95 Km 621 m 03:55:08 25.76 Km\h Venge
15/07/2018 Show to everybody Relax stacchiamo un po` revisioniamo il Motore!! 105.83 Km 1162 m 03:00:51 35.11 Km\h Venge
12/07/2018 Show to everybody Giro dell`ora di pranzo 115.61 Km 1275 m 05:01:39 23 Km\h Venge
10/07/2018 Show to everybody Giro dell`ora di pranzo 117.41 Km 1354 m 05:01:17 23.38 Km\h Venge
08/07/2018 Show to everybody Monte Bondone mi ha distrutto🤢*<`* 139.85 Km 3777 m 06:40:05 20.97 Km\h Venge
06/07/2018 Show to everybody A spasso gambe stanche🤢🤢(`% 80.17 Km 514 m 03:00:34 26.64 Km\h Venge
05/07/2018 Show to everybody 94.7 Km 1038 m 03:55:59 24.08 Km\h Venge
04/07/2018 Show to everybody Allergia alla Salita😂 ` 82.05 Km 324 m 03:03:26 26.84 Km\h Venge
03/07/2018 Show to everybody Giro pomeridiano 15.08 Km 9 m 00:39:27 22.93 Km\h Venge
01/07/2018 Show to everybody Maratona 2018!! 138.45 Km 4096 m 07:04:09 19.58 Km\h Venge
28/06/2018 Show to everybody Giro mattutino 92.41 Km 1019 m 03:54:40 23.63 Km\h Venge
26/06/2018 Show to everybody Giro mattutino 102.74 Km 1158 m 04:24:43 23.29 Km\h Venge
24/06/2018 Show to everybody Giro dell`ora di pranzo 121.01 Km 2374 m 05:55:17 20.44 Km\h Venge
24/06/2018 Show to everybody Giro serale 24.32 Km 4 m 00:57:05 25.57 Km\h Venge
22/06/2018 Show to everybody Quando non hai voglia!!! 70.14 Km 563 m 02:50:54 24.63 Km\h Venge
20/06/2018 Show to everybody Con calma ho la settimana di Lavoro di Notte $`$ 103.17 Km 1110 m 04:28:38 23.04 Km\h Venge
19/06/2018 Show to everybody Giro pomeridiano 67.32 Km 386 m 02:54:28 23.15 Km\h Venge
17/06/2018 Show to everybody Da 0 a 205Km tutto di Testa pensando al Mio Papà 204.64 Km 4831 m 09:36:05 21.31 Km\h Venge
14/06/2018 Show to everybody Giro pomeridiano 115.53 Km 1976 m 05:36:18 20.61 Km\h Venge
12/06/2018 Show to everybody Giro pomeridiano 70.68 Km 547 m 02:55:00 24.23 Km\h Venge
10/06/2018 Show to everybody Giro mattutino 126.61 Km 2611 m 05:10:51 24.44 Km\h Venge
07/06/2018 Show to everybody Giro pomeridiano 81.62 Km 613 m 03:05:22 26.42 Km\h Venge
06/06/2018 Show to everybody Giro pomeridiano 125.06 Km 1748 m 05:22:58 23.23 Km\h Venge
05/06/2018 Show to everybody Giro pomeridiano 69.36 Km 970 m 02:52:00 24.2 Km\h Venge
05/06/2018 Show to everybody Giro serale 25.55 Km 10 m 00:49:50 30.76 Km\h Venge
03/06/2018 Show to everybody Giro mattutino 106.96 Km 1686 m 03:41:54 28.92 Km\h Venge
31/05/2018 Show to everybody Giro mattutino 79.57 Km 587 m 03:16:55 24.24 Km\h Venge
30/05/2018 Show to everybody No Doping anzi sono anche anemico questo contro il Doping!! 106.45 Km 1169 m 04:28:03 23.83 Km\h Venge
27/05/2018 Show to everybody Giro pomeridiano 24.28 Km 11 m 00:46:36 31.26 Km\h Venge
27/05/2018 Show to everybody Giro dell`ora di pranzo 108.16 Km 1585 m 04:31:52 23.87 Km\h Venge
23/05/2018 Show to everybody Giro dell`ora di pranzo 100.57 Km 919 m 03:47:06 26.57 Km\h Venge
20/05/2018 Show to everybody Nella vita bisogna accettare il buono e cattivo,sto provando il cattivo ma non cado! 131.61 Km 2167 m 04:28:13 29.44 Km\h Venge
18/05/2018 Show to everybody Giro mattutino 98.64 Km 1148 m 03:57:55 24.88 Km\h Venge
16/05/2018 Show to everybody Giro mattutino 96.82 Km 941 m 03:00:34 32.17 Km\h Venge
13/05/2018 Show to everybody Giro mattutino 135.03 Km 2293 m 04:45:13 28.41 Km\h Venge
10/05/2018 Show to everybody 118.49 Km 1414 m 05:09:39 22.96 Km\h Venge
09/05/2018 Show to everybody 100metri di asfalto rasata la barba grazie al Casco poteva andare peggio,il resto 3 medaglie sulla gamba! 127.15 Km 1408 m 04:55:24 25.83 Km\h Venge
06/05/2018 Show to everybody Giro mattutino 170.28 Km 2611 m 06:11:37 27.49 Km\h Venge
02/05/2018 Show to everybody Porca zozza si è rotta l’aletta del attaco del Garmin (|`( 111.89 Km 1299 m 04:46:02 23.47 Km\h Venge
30/04/2018 Show to everybody Cotto come un polle`e 161.33 Km 2126 m 07:09:57 22.51 Km\h Venge
27/04/2018 Show to everybody A comprare i Calzini a Montebelluna! 85.03 Km 624 m 03:18:42 25.68 Km\h Venge
26/04/2018 Show to everybody Bmw Macchina Nuova!! 103.73 Km 1256 m 04:19:50 23.95 Km\h Venge
25/04/2018 Show to everybody Giro mattutino 121.03 Km 1368 m 04:55:24 24.58 Km\h Venge
22/04/2018 Show to everybody Giro mattutino 90.64 Km 2090 m 03:52:03 23.44 Km\h Venge
19/04/2018 Show to everybody Giro pomeridiano 124.24 Km 1414 m 04:59:17 24.91 Km\h Venge
17/04/2018 Show to everybody Giro pomeridiano 111.3 Km 1572 m 04:44:05 23.51 Km\h Venge
15/04/2018 Show to everybody Giro mattutino 132.71 Km 2595 m 05:04:20 26.16 Km\h Venge
10/04/2018 Show to everybody Ha rotto il cazzo sta Pioggia! 78.27 Km 674 m 03:07:09 25.09 Km\h Venge
09/04/2018 Show to everybody 20 telefonate 😡(|`( 73.85 Km 624 m 02:49:46 26.1 Km\h Venge
08/04/2018 Show to everybody Giro mattutino 187.11 Km 2194 m 07:32:02 24.84 Km\h Venge
07/04/2018 Show to everybody Presto mi aspetta la moglie a casa😱😱,|`( 77.74 Km 591 m 02:48:57 27.61 Km\h Venge
03/04/2018 Show to everybody Che culo rompere la Catena e tornare a casa! 99.7 Km 901 m 03:56:53 25.25 Km\h Venge
01/04/2018 Show to everybody Buona Pasqua 🐣 139.45 Km 1555 m 05:40:12 24.59 Km\h Venge
27/03/2018 Show to everybody Giro mattutino 88.3 Km 785 m 03:24:50 25.87 Km\h Venge
25/03/2018 Show to everybody Giro dell`ora di pranzo 103.19 Km 963 m 04:03:06 25.47 Km\h Venge
24/03/2018 Show to everybody Giro dell`ora di pranzo 117.2 Km 1282 m 04:38:14 25.27 Km\h Venge
24/03/2018 Show to everybody Giro pomeridiano 28.91 Km 21 m 01:05:11 26.61 Km\h Venge
22/03/2018 Show to everybody Ancora un po’ fiacco! 126.98 Km 1452 m 05:31:42 22.97 Km\h Venge
20/03/2018 Show to everybody Giro più brutto che ho fatto ,freddo e Vento...è anche febbre 🤒 83.08 Km 330 m 03:34:45 23.21 Km\h Venge
14/03/2018 Show to everybody Giro pomeridiano 78.73 Km 557 m 03:02:38 25.87 Km\h Venge
13/03/2018 Show to everybody Giro pomeridiano 87.04 Km 513 m 03:11:04 27.33 Km\h Venge
12/03/2018 Show to everybody Giro pomeridiano 85.14 Km 710 m 03:13:22 26.42 Km\h Venge
10/03/2018 Show to everybody Giro mattutino 121.79 Km 1109 m 04:41:21 25.97 Km\h Venge
08/03/2018 Show to everybody Giro mattutino 84.36 Km 534 m 03:21:09 25.16 Km\h Venge
04/03/2018 Show to everybody Giro mattutino 143.76 Km 1483 m 05:30:32 26.1 Km\h Venge
28/02/2018 Show to everybody Giro mattutino 73.54 Km 473 m 02:56:42 24.97 Km\h Venge
27/02/2018 Show to everybody Giro mattutino 80.23 Km 728 m 03:12:27 25.01 Km\h Venge
26/02/2018 Show to everybody Gelo ❄️ ghiaccio anche la bora 87.55 Km 954 m 03:31:21 24.85 Km\h Venge
21/02/2018 Show to everybody Giro prova altezza Sella 😡 64.67 Km 275 m 02:26:25 26.5 Km\h Venge
17/02/2018 Show to everybody 186.74 Km 1930 m 07:36:43 24.53 Km\h Venge
15/02/2018 Show to everybody Giro mattutino 89.08 Km 696 m 03:33:44 25.01 Km\h Venge
14/02/2018 Show to everybody Giro mattutino 94.26 Km 1057 m 03:42:01 25.47 Km\h Venge
11/02/2018 Show to everybody Mattina Top!!! 101.53 Km 561 m 03:36:59 28.08 Km\h Venge
08/02/2018 Show to everybody Giro mattutino 72.97 Km 400 m 02:49:24 25.85 Km\h Venge
08/02/2018 Show to everybody Giro mattutino 72.97 Km 400 m 02:49:24 25.85 Km\h Venge
06/02/2018 Show to everybody Giro mattutino 86.33 Km 741 m 03:26:26 25.09 Km\h Venge
04/02/2018 Show to everybody Giro pomeridiano 25.71 Km 1 m 01:10:43 21.81 Km\h Venge
04/02/2018 Show to everybody Giro mattutino 70.58 Km 479 m 02:59:29 23.6 Km\h Venge
31/01/2018 Show to everybody Giro dell`ora di pranzo 118.12 Km 965 m 04:45:40 24.81 Km\h Venge
29/01/2018 Show to everybody Giro mattutino 105.82 Km 1306 m 04:57:49 21.32 Km\h Venge
28/01/2018 Show to everybody Giro mattutino 136.64 Km 924 m 05:06:57 26.71 Km\h Venge
25/01/2018 Show to everybody Giro pomeridiano 59.37 Km 253 m 02:16:51 26.03 Km\h Venge
24/01/2018 Show to everybody Giro pomeridiano 66.37 Km 342 m 02:33:54 25.88 Km\h Venge
22/01/2018 Show to everybody Giro pomeridiano 62.84 Km 228 m 02:17:56 27.33 Km\h Venge
22/01/2018 Show to everybody Giro pomeridiano 62.84 Km 228 m 02:17:56 27.33 Km\h Venge
22/01/2018 Show to everybody Giro pomeridiano 62.84 Km 228 m 02:17:56 27.33 Km\h Venge
21/01/2018 Show to everybody Giro mattutino 115.64 Km 1164 m 04:40:05 24.77 Km\h Venge
20/01/2018 Show to everybody Giro mattutino 102.53 Km 1169 m 04:14:38 24.16 Km\h Venge
18/01/2018 Show to everybody Giro mattutino 88.86 Km 734 m 03:35:01 24.8 Km\h Venge
17/01/2018 Show to everybody Svago! 81.26 Km 576 m 03:18:34 24.55 Km\h Venge
14/01/2018 Show to everybody Giro con Franco Pavan E Annalisa Mondii 93.72 Km 525 m 03:14:31 28.91 Km\h Venge
12/01/2018 Show to everybody Giro pomeridiano 51.14 Km 72 m 01:57:30 26.11 Km\h Venge
11/01/2018 Show to everybody Giro pomeridiano 50.66 Km 50 m 01:57:14 25.93 Km\h Venge
05/01/2018 Show to everybody ....Ripresa Carmine è di Nuovo in 🚲!! 67.87 Km 183 m 02:35:18 26.22 Km\h Venge
22/12/2017 Show to everybody SFR 71.37 Km 509 m 02:51:11 25.01 Km\h Venge
19/12/2017 Show to everybody Febbre 🤒🤒 43.14 Km 80 m 01:37:59 26.41 Km\h Venge
15/12/2017 Show to everybody Giro dell`ora di pranzo 91.26 Km 899 m 03:52:21 23.57 Km\h Venge
14/12/2017 Show to everybody Giro dell`ora di pranzo 41.56 Km 342 m 01:44:38 23.83 Km\h Venge
14/12/2017 Show to everybody Giro pomeridiano 4.32 Km 327 m 00:20:21 12.74 Km\h Venge
14/12/2017 Show to everybody Giro pomeridiano 45.99 Km 13 m 01:36:20 28.64 Km\h Venge
10/12/2017 Show to everybody Giro mattutino 68.15 Km 287 m 02:15:22 30.21 Km\h Venge
10/12/2017 Show to everybody Giro mattutino 68.15 Km 287 m 02:15:22 30.21 Km\h Venge
09/12/2017 Show to everybody Giro mattutino 98.63 Km 1044 m 04:08:16 23.84 Km\h Venge
07/12/2017 Show to everybody Giro mattutino 66.4 Km 397 m 02:42:21 24.54 Km\h Venge
06/12/2017 Show to everybody Giro mattutino 82.31 Km 440 m 03:13:45 25.49 Km\h Venge
04/12/2017 Show to everybody #[^H 78.89 Km 446 m 03:13:13 24.5 Km\h Venge
04/12/2017 Show to everybody #[^H 78.89 Km 446 m 03:13:13 24.5 Km\h Venge
03/12/2017 Show to everybody Frozen⛄️☃️ 109.87 Km 1141 m 04:37:15 23.78 Km\h Venge
01/12/2017 Show to everybody Giro dell`ora di pranzo 84.31 Km 668 m 03:33:44 23.67 Km\h Venge
28/11/2017 Show to everybody Giro dell`ora di pranzo 81.97 Km 602 m 03:23:48 24.13 Km\h Venge
27/11/2017 Show to everybody Giro mattutino 118.98 Km 978 m 04:37:17 25.75 Km\h Venge
24/11/2017 Show to everybody Giro mattutino 80.5 Km 618 m 03:07:17 25.79 Km\h Venge
23/11/2017 Show to everybody Giro mattutino 67.02 Km 424 m 02:39:01 25.29 Km\h Venge
22/11/2017 Show to everybody Giro mattutino 81.18 Km 428 m 03:05:51 26.21 Km\h Venge
21/11/2017 Show to everybody Giro mattutino 86.68 Km 546 m 03:22:27 25.69 Km\h Venge
20/11/2017 Show to everybody Giro mattutino 89.84 Km 865 m 03:30:59 25.55 Km\h Venge
19/11/2017 Show to everybody 472esima stella del circuito Ale’ Challenger 2017 95.52 Km 819 m 03:40:53 25.95 Km\h Venge
17/11/2017 Show to everybody Giro pomeridiano 55.57 Km 78 m 02:03:24 27.02 Km\h Venge
15/11/2017 Show to everybody Giro pomeridiano 59.1 Km 152 m 02:13:38 26.54 Km\h Venge
14/11/2017 Show to everybody Giro pomeridiano 56.65 Km 175 m 02:09:36 26.23 Km\h Venge
11/11/2017 Show to everybody Giro mattutino 114.3 Km 526 m 03:56:30 29 Km\h Venge
09/11/2017 Show to everybody Giro mattutino 80.58 Km 724 m 03:14:30 24.86 Km\h Venge
08/11/2017 Show to everybody Giro mattutino 76.12 Km 476 m 03:02:34 25.02 Km\h Venge
04/11/2017 Show to everybody Giro mattutino 102.08 Km 798 m 03:59:07 25.61 Km\h Venge
02/11/2017 Show to everybody Giro pomeridiano 58.38 Km 266 m 02:09:23 27.07 Km\h Venge
01/11/2017 Show to everybody Giro mattutino 95.28 Km 893 m 03:43:45 25.55 Km\h Venge
30/10/2017 Show to everybody Giro pomeridiano 59.05 Km 68 m 02:06:21 28.04 Km\h Venge
29/10/2017 Show to everybody Giro mattutino 86.43 Km 450 m 03:03:19 28.29 Km\h Venge
28/10/2017 Show to everybody Giro mattutino 148.93 Km 1709 m 05:38:41 26.38 Km\h Venge
26/10/2017 Show to everybody Giro mattutino 90.19 Km 849 m 03:27:53 26.03 Km\h Venge
24/10/2017 Show to everybody Non riesco a corregere ,,,ho un dolore tremendo alla gamba DX😩😩 86.04 Km 591 m 03:12:23 26.83 Km\h Venge
16/10/2017 Show to everybody Giro mattutino 97.44 Km 1302 m 04:05:00 23.86 Km\h Venge
15/10/2017 Show to everybody 35.58 Km 171 m 01:10:52 30.12 Km\h Venge
13/10/2017 Show to everybody Giro pomeridiano 103.58 Km 603 m 03:42:01 27.99 Km\h Venge
12/10/2017 Show to everybody Giro pomeridiano 93.75 Km 833 m 03:36:33 25.98 Km\h Venge
10/10/2017 Show to everybody Giro pomeridiano 100.1 Km 531 m 03:34:04 28.06 Km\h Venge
09/10/2017 Show to everybody Giro pomeridiano 100.5 Km 809 m 03:36:27 27.86 Km\h Venge
08/10/2017 Show to everybody 120.48 Km 854 m 04:25:46 27.2 Km\h Venge
07/10/2017 Show to everybody Giro mattutino 97.9 Km 776 m 03:33:22 27.53 Km\h Venge
07/10/2017 Show to everybody Giro mattutino 0.69 Km 0 m 00:02:04 20.12 Km\h Venge
05/10/2017 Show to everybody Giro mattutino 77.56 Km 602 m 02:57:36 26.2 Km\h Venge
04/10/2017 Show to everybody Giro mattutino 77.45 Km 612 m 02:58:40 26.01 Km\h Venge
01/10/2017 Show to everybody Giro mattutino 63.1 Km 205 m 02:11:46 28.73 Km\h Venge
29/09/2017 Show to everybody Giro dell`ora di pranzo 77.7 Km 464 m 02:55:46 26.52 Km\h Venge
28/09/2017 Show to everybody Giro dell`ora di pranzo 129.66 Km 1610 m 05:13:54 24.78 Km\h Venge
26/09/2017 Show to everybody Giro dell`ora di pranzo 96.12 Km 982 m 03:51:52 24.87 Km\h Venge
25/09/2017 Show to everybody Giro mattutino 96.99 Km 796 m 03:35:18 27.03 Km\h Venge
25/09/2017 Show to everybody Giro pomeridiano 14.95 Km 25 m 00:30:26 29.47 Km\h Venge
22/09/2017 Show to everybody Giro pomeridiano 87.23 Km 620 m 03:14:48 26.87 Km\h Venge
21/09/2017 Show to everybody Giro pomeridiano 93.11 Km 970 m 03:45:56 24.73 Km\h Venge
20/09/2017 Show to everybody ☀️ 94.83 Km 1028 m 03:45:57 25.18 Km\h Venge
17/09/2017 Show to everybody Giro mattutino 108.56 Km 814 m 03:43:19 29.17 Km\h Venge
11/09/2017 Show to everybody Giro pomeridiano 98.35 Km 891 m 03:35:33 27.38 Km\h Venge
09/09/2017 Show to everybody Giro mattutino 84.88 Km 158 m 02:54:25 29.2 Km\h Venge
09/09/2017 Show to everybody Giro mattutino 84.88 Km 158 m 02:54:25 29.2 Km\h Venge
08/09/2017 Show to everybody Giro mattutino 141.15 Km 1856 m 05:44:10 24.61 Km\h Venge
08/09/2017 Show to everybody Giro pomeridiano 0.76 Km 6 m 00:02:19 19.58 Km\h Venge
06/09/2017 Show to everybody Giro mattutino 105.5 Km 1005 m 04:10:06 25.31 Km\h Venge
05/09/2017 Show to everybody Giro pomeridiano 79.43 Km 549 m 02:50:47 27.91 Km\h Venge
03/09/2017 Show to everybody GF SCOTT 2017 Percorso Lungo! 131.55 Km 2361 m 04:39:28 28.24 Km\h Venge
31/08/2017 Show to everybody Giro pomeridiano 114.12 Km 1409 m 04:36:08 24.8 Km\h Venge
30/08/2017 Show to everybody Giro pomeridiano 105.14 Km 746 m 03:47:31 27.73 Km\h Venge
29/08/2017 Show to everybody Giro mattutino 125.22 Km 2072 m 05:26:55 22.98 Km\h Venge
27/08/2017 Show to everybody Giro mattutino 102.56 Km 760 m 03:50:06 26.74 Km\h Venge
26/08/2017 Show to everybody Giro mattutino 102.91 Km 986 m 04:06:31 25.05 Km\h Venge
25/08/2017 Show to everybody CampoSolagna con un Bravo Ragazzo Matteo del Team Polo Padova!! 118.44 Km 1975 m 05:14:22 22.61 Km\h Venge
24/08/2017 Show to everybody Giro mattutino 96.31 Km 749 m 03:31:45 27.29 Km\h Venge
22/08/2017 Show to everybody Giro mattutino 65.2 Km 1000 m 02:54:09 22.46 Km\h Venge
20/08/2017 Show to everybody Giro mattutino 96.08 Km 1673 m 05:01:27 19.12 Km\h Venge
19/08/2017 Show to everybody Giro mattutino 85.02 Km 1263 m 03:40:01 23.19 Km\h Venge
18/08/2017 Show to everybody Amalfi!!!! 86.82 Km 1467 m 04:19:07 20.1 Km\h Venge
17/08/2017 Show to everybody Bastano i primi km/falsi piano della Costiera Amalfitana per piegarti le gambe!! 84.69 Km 1324 m 03:49:19 22.16 Km\h Venge
15/08/2017 Show to everybody Giro mattutino 122.13 Km 919 m 04:32:46 26.86 Km\h Venge
14/08/2017 Show to everybody Giro mattutino 101.81 Km 1335 m 04:30:02 22.62 Km\h Venge
13/08/2017 Show to everybody Mavic c40 le vendo fatemi sapere copertoncino! 132.02 Km 1487 m 05:17:19 24.96 Km\h Venge
11/08/2017 Show to everybody Giro pomeridiano 68.47 Km 320 m 01:40:01 41.08 Km\h Venge
09/08/2017 Show to everybody Giro pomeridiano 59.01 Km 304 m 01:25:24 41.46 Km\h Venge
08/08/2017 Show to everybody Giro pomeridiano 71.15 Km 416 m 01:59:20 35.77 Km\h Venge
07/08/2017 Show to everybody Giro pomeridiano 81.37 Km 249 m 02:06:23 38.63 Km\h Venge
06/08/2017 Show to everybody Giro mattutino 80.44 Km 553 m 02:06:15 38.23 Km\h Venge
05/08/2017 Show to everybody Giro mattutino 103 Km 457 m 02:11:46 46.9 Km\h Venge
03/08/2017 Show to everybody Giro pomeridiano 83.35 Km 731 m 03:04:19 27.13 Km\h Venge
03/08/2017 Show to everybody Giro pomeridiano 83.35 Km 731 m 03:04:19 27.13 Km\h Venge
02/08/2017 Show to everybody Giro pomeridiano 77.53 Km 598 m 02:49:24 27.46 Km\h Venge
30/07/2017 Show to everybody Garmin in Tilt comunque ho patecipato alla GF Dei Templari 90.77 Km 658 m 02:13:46 40.71 Km\h Venge
28/07/2017 Show to everybody Giro serale 67.14 Km 476 m 02:33:56 26.17 Km\h Venge
26/07/2017 Show to everybody Giro pomeridiano 88.18 Km 680 m 03:16:16 26.96 Km\h Venge
23/07/2017 Show to everybody Giro mattutino 154.83 Km 1713 m 06:08:28 25.21 Km\h Venge
22/07/2017 Show to everybody 157.44 Km 2341 m 06:48:01 23.15 Km\h Venge
19/07/2017 Show to everybody Giro pomeridiano 81.42 Km 757 m 03:03:18 26.65 Km\h Venge
18/07/2017 Show to everybody Giro pomeridiano 94.15 Km 827 m 03:22:32 27.89 Km\h Venge
16/07/2017 Show to everybody Bella mai fatto una gF tranquilla ricordo bello mi rimane di aver Pedalato con un mio Conterraneo Salvatore comunque oggi è anche il mio onomastico qui sono con i miei due Capitani Tecchio e Pontalto 145.64 Km 2399 m 05:02:20 28.9 Km\h Venge
14/07/2017 Show to everybody Giro pomeridiano 76.85 Km 593 m 03:03:07 25.18 Km\h Venge
13/07/2017 Show to everybody Giro pomeridiano 89.16 Km 896 m 03:19:00 26.88 Km\h Venge
12/07/2017 Show to everybody Giro pomeridiano 98.7 Km 1040 m 03:41:41 26.71 Km\h Venge
10/07/2017 Show to everybody Giro pomeridiano 90.96 Km 608 m 03:22:35 26.94 Km\h Venge
09/07/2017 Show to everybody Giro mattutino 117.82 Km 1639 m 04:53:06 24.12 Km\h Venge
08/07/2017 Show to everybody Giro mattutino 116.77 Km 1244 m 04:52:18 23.97 Km\h Venge
07/07/2017 Show to everybody Giro pomeridiano 62.78 Km 225 m 02:17:29 27.4 Km\h Venge
06/07/2017 Show to everybody Giro pomeridiano 93.83 Km 957 m 03:44:16 25.1 Km\h Venge
06/07/2017 Show to everybody Giro pomeridiano 93.83 Km 957 m 03:44:16 25.1 Km\h Venge
04/07/2017 Show to everybody Giro serale 77.62 Km 544 m 02:56:29 26.39 Km\h Venge
04/07/2017 Show to everybody Giro serale 77.62 Km 544 m 02:56:29 26.39 Km\h Venge
03/07/2017 Show to everybody Giro pomeridiano 83 Km 673 m 03:12:45 25.84 Km\h Venge
02/07/2017 Show to everybody Test tubolari Vittoria Grafene,,,meglio la bomboletta da 4€ del decathlon!!! 105.69 Km 1147 m 04:24:30 23.98 Km\h Venge
01/07/2017 Show to everybody Giro dell`ora di pranzo 97.5 Km 2211 m 04:52:33 20 Km\h Venge
01/07/2017 Show to everybody Giro serale 44.23 Km 110 m 01:36:24 27.53 Km\h Venge
29/06/2017 Show to everybody Giro pomeridiano 95.32 Km 732 m 03:45:47 25.33 Km\h Venge
27/06/2017 Show to everybody Giro pomeridiano 94.98 Km 681 m 03:40:50 25.8 Km\h Venge
26/06/2017 Show to everybody Giro serale 87.45 Km 678 m 03:15:10 26.88 Km\h Venge
23/06/2017 Show to everybody Giro pomeridiano 88.63 Km 695 m 03:35:32 24.67 Km\h Venge
22/06/2017 Show to everybody Giro serale 84.38 Km 711 m 03:18:01 25.57 Km\h Venge
21/06/2017 Show to everybody Giro serale 77.47 Km 593 m 02:57:17 26.22 Km\h Venge
20/06/2017 Show to everybody Giro pomeridiano 81.9 Km 755 m 03:15:01 25.2 Km\h Venge
18/06/2017 Show to everybody Giro non cronometrato,non avevo il chip,ho forato è ho fatto il medio solo dopo il fine corsa!!! 133.8 Km 3080 m 06:01:38 22.2 Km\h Venge
18/06/2017 Show to everybody Giro mattutino 12.27 Km 71 m 00:22:00 33.45 Km\h Venge
16/06/2017 Show to everybody Giro serale 77.85 Km 615 m 03:00:44 25.84 Km\h Venge
15/06/2017 Show to everybody Giro pomeridiano 93.16 Km 934 m 03:41:08 25.28 Km\h Venge
12/06/2017 Show to everybody Giro pomeridiano 100.45 Km 1179 m 04:00:47 25.03 Km\h Venge
11/06/2017 Show to everybody Giro mattutino 79.25 Km 1392 m 02:45:34 28.72 Km\h Venge
08/06/2017 Show to everybody Ho tagliato il copertoncino in discesa ,|`,|`,|&J/ J/ J/ b ~b 95 Km 992 m 03:42:00 25.68 Km\h Venge
07/06/2017 Show to everybody Giro pomeridiano 68.61 Km 379 m 02:32:52 26.93 Km\h Venge
05/06/2017 Show to everybody Giro pomeridiano 77.52 Km 585 m 02:53:10 26.86 Km\h Venge
05/06/2017 Show to everybody Giro pomeridiano 77.52 Km 585 m 02:53:10 26.86 Km\h Venge
03/06/2017 Show to everybody Secondo giorno di Grappa! 132.35 Km 2209 m 05:51:01 22.62 Km\h Venge
02/06/2017 Show to everybody Dopo serata di 50 bottiglie di prosecco ci voleva un po` di grappa 113.39 Km 1822 m 05:08:18 22.07 Km\h Venge
31/05/2017 Show to everybody Giro pomeridiano 94.29 Km 925 m 03:33:41 26.48 Km\h Venge
30/05/2017 Show to everybody Mi sono trovato con un`amico di Strava👍 93.96 Km 854 m 03:26:56 27.24 Km\h Venge
28/05/2017 Show to everybody Giro mattutino 96.21 Km 1948 m 03:34:05 26.97 Km\h Venge
26/05/2017 Show to everybody Giro pomeridiano 92.32 Km 828 m 03:30:26 26.32 Km\h Venge
25/05/2017 Show to everybody Giro pomeridiano 91.96 Km 820 m 03:31:43 26.06 Km\h Venge
24/05/2017 Show to everybody Giro pomeridiano 89.52 Km 780 m 03:32:10 25.32 Km\h Venge
23/05/2017 Show to everybody Un po` di stanhezza !!! 84.83 Km 756 m 03:21:03 25.32 Km\h Venge
21/05/2017 Show to everybody Giro mattutino 204.68 Km 4017 m 07:58:50 25.65 Km\h Venge
18/05/2017 Show to everybody Giro pomeridiano 88.28 Km 732 m 03:23:54 25.98 Km\h Venge
17/05/2017 Show to everybody Giro pomeridiano 83.5 Km 726 m 03:12:04 26.08 Km\h Venge
16/05/2017 Show to everybody Giro pomeridiano 95.51 Km 992 m 03:33:40 26.82 Km\h Venge
14/05/2017 Show to everybody Giro mattutino 171.36 Km 2411 m 07:30:07 22.84 Km\h Venge
13/05/2017 Show to everybody Che ne dite a me piace questa scarpa!!!sono stato alla Gaerne!!! 134.27 Km 1722 m 05:21:28 25.06 Km\h Venge
12/05/2017 Show to everybody Giro pomeridiano 88.13 Km 856 m 03:28:46 25.33 Km\h Venge
10/05/2017 Show to everybody Giro pomeridiano 82.86 Km 800 m 03:14:39 25.54 Km\h Venge
10/05/2017 Show to everybody Giro pomeridiano 82.86 Km 800 m 03:14:39 25.54 Km\h Venge
07/05/2017 Show to everybody Giro mattutino 117.55 Km 1424 m 04:50:16 24.3 Km\h Venge
06/05/2017 Show to everybody Giro mattutino 118.19 Km 1105 m 04:17:45 27.51 Km\h Venge
03/05/2017 Show to everybody Giro pomeridiano 79.43 Km 528 m 02:50:58 27.88 Km\h Venge
02/05/2017 Show to everybody Giro ! 75.94 Km 575 m 02:54:01 26.18 Km\h Venge
30/04/2017 Show to everybody Giro mattutino 127.23 Km 2343 m 04:28:50 28.4 Km\h Venge
28/04/2017 Show to everybody Strada dedicata a mua!! 79 Km 846 m 03:02:33 25.96 Km\h Venge
25/04/2017 Show to everybody Giro mattutino 90.29 Km 781 m 03:30:20 25.76 Km\h Venge
24/04/2017 Show to everybody Sgambata!!! 69.33 Km 444 m 02:39:29 26.08 Km\h Venge
23/04/2017 Show to everybody Da Rifare!!!Gf Firenze! 118.04 Km 2516 m 04:23:58 26.83 Km\h Venge
20/04/2017 Show to everybody Giro pomeridiano 62.91 Km 402 m 02:18:22 27.28 Km\h Venge
19/04/2017 Show to everybody Ueee ma che siamo a Dicembre???cazz di freddo!! 69.99 Km 497 m 02:38:42 26.46 Km\h Venge
17/04/2017 Show to everybody Giro dell`ora di pranzo 81.27 Km 566 m 02:56:11 27.68 Km\h Venge
17/04/2017 Show to everybody Giro mattutino 46.6 Km 687 m 02:00:07 23.28 Km\h Venge
15/04/2017 Show to everybody Giro mattutino 97.47 Km 1041 m 03:38:48 26.73 Km\h Venge
14/04/2017 Show to everybody Giro pomeridiano 73.91 Km 516 m 02:36:29 28.34 Km\h Venge
13/04/2017 Show to everybody Giro pomeridiano di recupero TSS troppo Alto!!! 44.09 Km 64 m 01:35:37 27.67 Km\h Venge
12/04/2017 Show to everybody Giro pomeridiano 82.12 Km 519 m 02:50:40 28.87 Km\h Venge
10/04/2017 Show to everybody Giro pomeridiano 54.54 Km 145 m 01:53:59 28.71 Km\h Venge
09/04/2017 Show to everybody Giro mattutino 103.58 Km 570 m 03:38:42 28.42 Km\h Venge
08/04/2017 Show to everybody Giro mattutino 121.04 Km 1927 m 05:10:56 23.36 Km\h Venge
06/04/2017 Show to everybody Giro serale 63.23 Km 357 m 02:06:40 29.95 Km\h Venge
05/04/2017 Show to everybody Giro pomeridiano 73.31 Km 411 m 02:33:00 28.75 Km\h Venge
04/04/2017 Show to everybody Giro pomeridiano 60.45 Km 191 m 01:57:29 30.87 Km\h Venge
02/04/2017 Show to everybody Giro mattutino 102.82 Km 1038 m 03:01:18 34.03 Km\h Venge
31/03/2017 Show to everybody Giro pomeridiano 61.95 Km 292 m 02:11:07 28.35 Km\h Venge
30/03/2017 Show to everybody Giro pomeridiano 66.65 Km 416 m 02:10:47 30.58 Km\h Venge
29/03/2017 Show to everybody Giro pomeridiano 62.26 Km 397 m 02:06:36 29.51 Km\h Venge
27/03/2017 Show to everybody Giro pomeridiano 50.59 Km 163 m 01:41:10 30 Km\h Venge
26/03/2017 Show to everybody Giro mattutino 81.16 Km 470 m 03:01:52 26.78 Km\h Venge
25/03/2017 Show to everybody Giro all`ora di pranzo 19.87 Km 16 m 00:40:10 29.68 Km\h Venge
25/03/2017 Show to everybody Giro mattutino 108.53 Km 1002 m 03:58:12 27.34 Km\h Venge
20/03/2017 Show to everybody Giro pomeridiano 30.52 Km 28 m 01:03:24 28.88 Km\h Venge
19/03/2017 Show to everybody Giro mattutino 78.68 Km 553 m 02:58:03 26.51 Km\h Venge
18/03/2017 Show to everybody Il ciclismo sono gioie e dolore!!! 186.7 Km 1894 m 07:04:51 26.37 Km\h Venge
16/03/2017 Show to everybody Giro pomeridiano 31.43 Km 25 m 01:06:02 28.55 Km\h Venge
14/03/2017 Show to everybody Giro pomeridiano 29.38 Km 21 m 00:59:22 29.69 Km\h Venge
12/03/2017 Show to everybody Giro mattutino 144.27 Km 1542 m 05:47:19 24.92 Km\h Venge
11/03/2017 Show to everybody Giro mattutino 117.02 Km 1513 m 04:46:34 24.5 Km\h Venge
09/03/2017 Show to everybody Giro pomeridiano 25.43 Km 28 m 00:51:46 29.48 Km\h Venge
08/03/2017 Show to everybody Giro pomeridiano 25.94 Km 17 m 00:53:49 28.92 Km\h Venge
07/03/2017 Show to everybody Ninte e` dato per finire!!!basta anche poco!! 25.02 Km 30 m 00:52:00 28.87 Km\h Venge
05/03/2017 Show to everybody Giro dell`ora di pranzo 93.89 Km 955 m 03:41:33 25.43 Km\h Venge
25/02/2017 Show to everybody Un bel lungo con bella media!!! 142.85 Km 877 m 04:31:04 31.62 Km\h Venge
22/02/2017 Show to everybody Giro mattutino 84.2 Km 548 m 03:03:46 27.49 Km\h Venge
21/02/2017 Show to everybody Mi serve un ginocchio dx il mio è fuori uso!! 92.24 Km 687 m 03:27:40 26.65 Km\h Venge
19/02/2017 Show to everybody Buona Pedalata!!! 95.13 Km 779 m 03:43:25 25.55 Km\h Venge
18/02/2017 Show to everybody Giornata noo..... 100.46 Km 1078 m 03:58:27 25.28 Km\h Venge
16/02/2017 Show to everybody Primo Monfenera per Enrico b`b`b$ۿ  101.69 Km 1184 m 04:12:32 24.16 Km\h Venge
15/02/2017 Show to everybody baciato 😘dal` ; 152.64 Km 2215 m 06:31:48 23.37 Km\h Venge
12/02/2017 Show to everybody Giro mattutino con Giovanni,ogni tanto al Bar ci si ferma per un Caffè!!Marostica!!! 94.31 Km 700 m 03:40:00 25.72 Km\h Venge
11/02/2017 Show to everybody Prima foratura Tubolare ,caspita mi è andata di culo la bomboletta funziona ☺️👋"`# 102.48 Km 631 m 03:47:01 27.08 Km\h Venge
09/02/2017 Show to everybody Bellissima giornata piena di VENTO💨💨<` 102.92 Km 899 m 04:00:12 25.71 Km\h Venge
08/02/2017 Show to everybody Giro pomeridiano 91.34 Km 746 m 03:31:59 25.85 Km\h Venge
07/02/2017 Show to everybody Giro dell`ora di pranzo 114.82 Km 1006 m 04:17:53 26.71 Km\h Venge
29/01/2017 Show to everybody Giro mattutino 84.51 Km 741 m 03:13:10 26.25 Km\h Venge
28/01/2017 Show to everybody Giro mattutino 92.48 Km 964 m 03:34:16 25.9 Km\h Venge
23/01/2017 Show to everybody Giro pomeridiano 70.43 Km 510 m 02:39:11 26.55 Km\h Venge
22/01/2017 Show to everybody Giro con un Top Amico!!! 75.98 Km 475 m 02:44:57 27.64 Km\h Venge
21/01/2017 Show to everybody Giro mattutino 96.83 Km 956 m 03:45:31 25.76 Km\h Venge
19/01/2017 Show to everybody Asolo,SFR, 70.25 Km 470 m 02:42:09 26 Km\h Venge
17/01/2017 Show to everybody Giro mattutino 62.04 Km 402 m 02:19:14 26.74 Km\h Venge
15/01/2017 Show to everybody Giro mattutino 75.32 Km 554 m 02:33:07 29.52 Km\h Venge
11/01/2017 Show to everybody SFR+ Sprint in salita!!! 72.95 Km 561 m 02:43:14 26.81 Km\h Venge
08/01/2017 Show to everybody Oggi ho pedalato in gruppo in compagnia era da tanto tempo che non lo facevo!!! 66.54 Km 378 m 02:25:01 27.53 Km\h Venge
06/01/2017 Show to everybody Freddo,pensavo di peggio ma sono riuscito a fare 3h 72.85 Km 713 m 02:57:22 24.64 Km\h Venge
05/01/2017 Show to everybody Vento 60.55 Km 211 m 02:11:27 27.64 Km\h Venge
02/01/2017 Show to everybody Giro pomeridiano 50.12 Km 183 m 01:48:37 27.69 Km\h Venge
31/12/2016 Show to everybody Auguri di buon anno a Tutti tutti in buona salute,,vi voglio bene a tutti!! 139.72 Km 1464 m 05:09:32 27.08 Km\h Venge
28/12/2016 Show to everybody Giro mattutino 86.85 Km 810 m 03:08:46 27.61 Km\h Venge
27/12/2016 Show to everybody Giro mattutino 117.37 Km 1296 m 04:40:25 25.11 Km\h Venge
26/12/2016 Show to everybody Regalo di Natale due libri e un pawer2Max! 90.5 Km 562 m 03:12:23 28.22 Km\h Venge
17/12/2016 Show to everybody Scaldiamo il motore un po` di grappa!!! 105.07 Km 1187 m 04:17:06 24.52 Km\h Venge
16/12/2016 Show to everybody Settimana dura quando lavoro in turno notte 90.17 Km 722 m 03:26:32 26.19 Km\h Venge
12/12/2016 Show to everybody Giro dell`ora di pranzo 94.87 Km 788 m 03:37:50 26.13 Km\h Venge
10/12/2016 Show to everybody Giro mattutino 110.54 Km 1037 m 04:18:35 25.65 Km\h Venge
08/12/2016 Show to everybody Giro mattutino 85.1 Km 475 m 03:07:14 27.27 Km\h Venge
04/12/2016 Show to everybody Giro mattutino 98.78 Km 813 m 03:38:40 27.1 Km\h Venge
27/11/2016 Show to everybody Giro mattutino 68.03 Km 497 m 02:27:22 27.7 Km\h Venge
17/11/2016 Show to everybody Giro mattutino mancano 20km!!!iGarmin non era acceso!!! 89.32 Km 526 m 02:27:50 36.25 Km\h Venge
16/11/2016 Show to everybody Giro mattutino 90.91 Km 851 m 03:26:25 26.43 Km\h Venge
15/11/2016 Show to everybody Giro mattutino a digiuno,smaltiamo un po`!!! 74.65 Km 665 m 02:52:18 25.99 Km\h Venge
13/11/2016 Show to everybody Giro mattutino 81.32 Km 506 m 02:55:10 27.85 Km\h Venge
12/11/2016 Show to everybody Giro mattutino 111.87 Km 1007 m 04:02:07 27.72 Km\h Venge
10/11/2016 Show to everybody Giro pomeridiano 101.83 Km 639 m 03:27:50 29.4 Km\h Venge
08/11/2016 Show to everybody Giro mattutino soft!!! 62.01 Km 330 m 02:19:17 26.71 Km\h Venge
07/11/2016 Show to everybody Giro mattutino 99.19 Km 1076 m 03:35:45 27.58 Km\h Venge
04/11/2016 Show to everybody Giro mattutino 81.88 Km 858 m 03:09:51 25.88 Km\h Venge
03/11/2016 Show to everybody Giro mattutino 101.39 Km 1307 m 04:13:43 23.98 Km\h Venge
01/11/2016 Show to everybody Giro mattutino 102.46 Km 637 m 03:31:28 29.07 Km\h Venge
30/10/2016 Show to everybody Giro mattutino 86.41 Km 603 m 02:50:23 30.43 Km\h Venge
29/10/2016 Show to everybody Giro mattutino 109.99 Km 1212 m 04:21:57 25.19 Km\h Venge
23/10/2016 Show to everybody X oggi giornata 95 Km 747 m 03:17:29 28.86 Km\h Venge
22/10/2016 Show to everybody Giro mattutino 81.2 Km 405 m 02:51:48 28.36 Km\h Venge
21/10/2016 Show to everybody Giro pomeridiano 102.03 Km 1336 m 04:15:12 23.99 Km\h Venge
18/10/2016 Show to everybody Giro pomeridiano 78.66 Km 503 m 02:47:03 28.25 Km\h Venge
17/10/2016 Show to everybody Giro mattutino 87.13 Km 962 m 03:32:49 24.57 Km\h Venge
16/10/2016 Show to everybody Giro mattutino 126.01 Km 937 m 04:40:38 26.94 Km\h Venge
13/10/2016 Show to everybody Giro pomeridiano 63.9 Km 275 m 02:18:33 27.67 Km\h Venge
12/10/2016 Show to everybody Giro mattutino 112.16 Km 1209 m 04:31:33 24.78 Km\h Venge
10/10/2016 Show to everybody Allenamento 70.43 Km 589 m 02:36:57 26.92 Km\h Venge
08/10/2016 Show to everybody Un po` di acqua 117.07 Km 1670 m 04:48:38 24.34 Km\h Venge
06/10/2016 Show to everybody Giro pomeridiano 100.53 Km 831 m 03:37:26 27.74 Km\h Venge
04/10/2016 Show to everybody Anche oggi la gamba ha girato!!! 97.25 Km 952 m 03:54:27 24.89 Km\h Venge
03/10/2016 Show to everybody Dopo Lavoro ci voleva un po` di Grappa!! 105.96 Km 1409 m 04:28:36 23.67 Km\h Venge
01/10/2016 Show to everybody Giro pomeridiano 88.52 Km 569 m 03:22:30 26.23 Km\h Venge
27/09/2016 Show to everybody Giro pomeridiano 90.34 Km 870 m 03:28:41 25.98 Km\h Venge
26/09/2016 Show to everybody Giro mattutino 81.78 Km 672 m 03:10:43 25.73 Km\h Venge
25/09/2016 Show to everybody Giro mattutino 100.6 Km 1015 m 03:17:12 30.61 Km\h Venge
24/09/2016 Show to everybody Giro mattutino 94.68 Km 1071 m 03:10:07 29.88 Km\h Venge
21/09/2016 Show to everybody Mi si è rotta la forcella,,,!!! 48.66 Km 807 m 02:14:33 21.7 Km\h Venge
19/09/2016 Show to everybody Giro pomeridiano 105.82 Km 1581 m 04:31:39 23.37 Km\h Venge
17/09/2016 Show to everybody Giro mattutino 113.91 Km 1081 m 04:28:31 25.45 Km\h Venge
15/09/2016 Show to everybody Giro mattutino 68.95 Km 367 m 02:34:43 26.74 Km\h Venge
14/09/2016 Show to everybody Giro pomeridiano 97.85 Km 1104 m 03:59:04 24.56 Km\h Venge
12/09/2016 Show to everybody Giro pomeridiano 96.93 Km 1134 m 04:05:21 23.7 Km\h Venge
11/09/2016 Show to everybody Giro mattutino 112.11 Km 878 m 04:17:56 26.08 Km\h Venge
10/09/2016 Show to everybody Giro soft!!!!con due amici di Mirano 98.12 Km 1179 m 04:03:57 24.13 Km\h Venge
03/09/2016 Show to everybody Mancano i km di andata, stamattina avevo la testa tra le nuvole!!! 55.28 Km 613 m 02:07:33 26 Km\h Venge
01/09/2016 Show to everybody Giro pomeridiano 67.76 Km 440 m 02:25:08 28.01 Km\h Venge
30/08/2016 Show to everybody Giro pomeridiano 63.08 Km 445 m 02:23:58 26.29 Km\h Venge
28/08/2016 Show to everybody Adesso faccio un po` di ore in piu` di Allenamento,ma il dolore prende il sopravento la Parte Dx Gluteo Schiena punge!!! 130.52 Km 1454 m 05:21:39 24.35 Km\h Venge
27/08/2016 Show to everybody Giro mattutino 108.44 Km 832 m 04:01:07 26.98 Km\h Venge
26/08/2016 Show to everybody Giro Con Franco,piano mi riprendo da questo momento...!!! 76.23 Km 425 m 02:44:55 27.73 Km\h Venge
23/08/2016 Show to everybody Giro serale 66.92 Km 588 m 02:37:50 25.44 Km\h Venge
20/08/2016 Show to everybody Giro mattutino 116.43 Km 1030 m 04:36:46 25.24 Km\h Venge
19/08/2016 Show to everybody Primo giro, dopo uno stop forzato per incidente e`dico tanto fortunato,ho provato che significa essere centrati in pieno da una macchina!!!! 60.69 Km 340 m 02:26:52 24.79 Km\h Venge
07/08/2016 Show to everybody Giro mattutino 139.85 Km 1325 m 05:04:32 27.55 Km\h Venge
06/08/2016 Show to everybody Asolo Montello 128.53 Km 1230 m 04:40:53 27.46 Km\h Venge
02/08/2016 Show to everybody Giro serale 67.87 Km 500 m 02:38:50 25.64 Km\h Venge
30/07/2016 Show to everybody Giro mattutino 115.83 Km 2010 m 05:30:00 21.06 Km\h Venge
29/07/2016 Show to everybody Giro pomeridiano 77.84 Km 468 m 03:06:56 24.98 Km\h Venge
24/07/2016 Show to everybody Giro dell`ora di pranzo 79.79 Km 692 m 03:06:00 25.74 Km\h Venge
23/07/2016 Show to everybody Giro mattutino 102.68 Km 1010 m 04:00:55 25.57 Km\h Venge
21/07/2016 Show to everybody Giro mattutino 86.69 Km 799 m 03:32:24 24.49 Km\h Venge
19/07/2016 Show to everybody Giro mattutino 88.78 Km 804 m 03:31:05 25.24 Km\h Venge
17/07/2016 Show to everybody Giro mattutino 125.77 Km 1362 m 05:06:57 24.59 Km\h Venge
16/07/2016 Show to everybody Giro mattutino 115.67 Km 1027 m 04:31:16 25.58 Km\h Venge
14/07/2016 Show to everybody Giro pomeridiano 69.12 Km 512 m 02:22:37 29.08 Km\h Venge
12/07/2016 Show to everybody Giro pomeridiano 81.63 Km 644 m 03:05:26 26.41 Km\h Venge
10/07/2016 Show to everybody Giro mattutino 158.55 Km 2602 m 05:53:00 26.95 Km\h Venge
08/07/2016 Show to everybody Giro mattutino 95.01 Km 1026 m 03:38:29 26.09 Km\h Venge
06/07/2016 Show to everybody Meritiamo un premio noi tutti per impegno e costanza nelle uscite!!! 71.31 Km 659 m 02:48:24 25.41 Km\h Venge
03/07/2016 Show to everybody Giro mattutino 138.1 Km 4132 m 07:03:26 19.57 Km\h Venge
30/06/2016 Show to everybody Giro pomeridiano 125.01 Km 1705 m 05:30:50 22.67 Km\h Venge
28/06/2016 Show to everybody Giro mattutino 104.47 Km 1288 m 04:23:51 23.76 Km\h Venge
26/06/2016 Show to everybody Giro mattutino Brutta caduta,Tanto Male ma ho chiuso il lungo!!! 143.96 Km 2071 m 05:15:53 27.35 Km\h Venge
24/06/2016 Show to everybody Giro mattutino 90.54 Km 699 m 03:23:53 26.65 Km\h Venge
23/06/2016 Show to everybody Giro mattutino oggi GIRO 70.66 Km 554 m 02:39:58 26.5 Km\h Venge
17/06/2016 Show to everybody Giro pomeridiano 135.82 Km 2157 m 05:53:20 23.06 Km\h Venge
15/06/2016 Show to everybody Giro pomeridiano 124 Km 2069 m 05:28:46 22.63 Km\h Venge
14/06/2016 Show to everybody Giro pomeridiano 67.71 Km 370 m 02:32:32 26.63 Km\h Venge
13/06/2016 Show to everybody Giro pomeridiano sempre Yellow fluo 54.09 Km 285 m 01:51:25 29.13 Km\h Venge
10/06/2016 Show to everybody Giro mattutino oggi 82.51 Km 761 m 03:07:45 26.37 Km\h Venge
08/06/2016 Show to everybody Giro mattutino,un po` di pioggia ci voleva,non piove mai⛈